Time;durP1;ratioP1;P1;durP2;ratioP2;P2;SDS_P1;SDS_P2;PMS_P1;PMS_P2;Temp;Humidity;BMP_temperature;BMP_pressure;BME280_temperature;BME280_humidity;BME280_pressure;Samples;Min_cycle;Max_cycle;Signal;HPM_P1;HPM_P2
2022/02/05 00:02:56;;;;;;;8.13;2.80;;;;;;;8.48;100.00;97832.22;5008673;28;20042;-56
2022/02/05 00:05:30;;;;;;;7.30;2.85;;;;;;;7.70;100.00;97833.94;5006137;28;20033;-54
2022/02/05 00:08:20;;;;;;;8.70;3.20;;;;;;;7.44;100.00;97852.91;5009352;28;20025;-56
2022/02/05 00:41:11;;;;;;;8.20;3.80;;;;;;;6.24;100.00;97892.53;4990188;28;20506;-54
2022/02/05 00:43:37;;;;;;;6.50;2.88;;;;;;;8.09;100.00;97905.41;5008543;28;20025;-56
2022/02/05 00:46:05;;;;;;;7.35;3.10;;;;;;;7.96;100.00;97907.56;5008163;28;20029;-56
2022/02/05 00:48:30;;;;;;;8.18;3.17;;;;;;;7.89;100.00;97912.09;5006353;28;20055;-56
2022/02/05 00:51:08;;;;;;;7.80;3.08;;;;;;;7.96;100.00;97907.56;5007455;28;20037;-54
2022/02/05 00:53:36;;;;;;;7.90;3.25;;;;;;;7.49;100.00;97926.28;5009265;28;20052;-56
2022/02/05 00:56:36;;;;;;;7.00;3.13;;;;;;;8.19;100.00;97944.91;5009343;28;20034;-54
2022/02/05 00:58:48;;;;;;;8.15;3.05;;;;;;;9.13;100.00;97949.56;5006332;28;20688;-55
2022/02/05 01:01:13;;;;;;;7.15;2.67;;;;;;;7.43;100.00;97960.19;5009601;28;20519;-56
2022/02/05 01:03:39;;;;;;;7.35;3.03;;;;;;;6.34;100.00;97966.56;5010851;28;20534;-54
2022/02/05 01:06:06;;;;;;;7.80;3.13;;;;;;;6.28;100.00;97971.88;5009729;28;20124;-54
2022/02/05 01:08:32;;;;;;;7.22;2.00;;;;;;;9.36;100.00;97988.63;5008997;28;20034;-54
2022/02/05 01:10:57;;;;;;;7.03;2.97;;;;;;;6.78;100.00;97991.38;5009988;28;20029;-54
2022/02/05 01:13:25;;;;;;;8.15;2.67;;;;;;;7.37;100.00;97988.06;5011299;28;20384;-55
2022/02/05 01:18:25;;;;;;;7.22;2.70;;;;;;;7.58;100.00;97997.00;5010557;28;20126;-54
2022/02/05 01:21:21;;;;;;;5.45;2.00;;;;;;;8.86;100.00;97996.47;5010289;28;20038;-53
2022/02/05 01:26:17;;;;;;;7.45;2.60;;;;;;;7.35;100.00;97998.47;5009296;28;20103;-53
2022/02/05 01:28:45;;;;;;;9.18;2.55;;;;;;;7.74;100.00;98008.63;5010841;28;20027;-55
2022/02/05 01:31:11;;;;;;;7.20;2.83;;;;;;;6.59;100.00;98014.34;5009830;28;20088;-54
2022/02/05 01:33:53;;;;;;;7.70;3.03;;;;;;;7.43;100.00;98019.88;5010111;28;20025;-53
2022/02/05 01:48:56;;;;;;;9.25;3.03;;;;;;;5.76;100.00;98035.19;5009174;28;20095;-55
2022/02/05 01:55:18;;;;;;;9.02;3.03;;;;;;;6.59;100.00;98051.47;5006985;28;20064;-54
2022/02/05 01:57:56;;;;;;;10.52;3.15;;;;;;;6.44;100.00;98051.84;5009912;28;20026;-54
2022/02/05 02:22:01;;;;;;;13.63;3.83;;;;;;;4.67;100.00;98076.84;5008757;28;20038;-54
2022/02/05 02:25:16;;;;;;;11.55;3.60;;;;;;;4.95;100.00;98081.56;5008539;28;20022;-54
2022/02/05 02:32:08;;;;;;;9.95;3.38;;;;;;;6.35;100.00;98087.41;5010004;28;20523;-53
2022/02/05 02:34:40;;;;;;;13.45;3.92;;;;;;;4.75;100.00;98090.47;5008036;28;20389;-54
2022/02/05 02:37:07;;;;;;;9.38;3.20;;;;;;;5.85;100.00;98096.25;5009162;28;20041;-54
2022/02/05 02:39:45;;;;;;;13.55;3.78;;;;;;;4.43;100.00;98089.25;5009744;28;20033;-54
2022/02/05 02:42:12;;;;;;;9.43;2.92;;;;;;;5.20;100.00;98092.28;5009509;28;20044;-55
2022/02/05 02:44:37;;;;;;;9.10;2.90;;;;;;;5.51;100.00;98095.16;5009532;28;20491;-56
2022/02/05 02:47:03;;;;;;;10.30;3.78;;;;;;;5.20;100.00;98095.75;5004410;28;20038;-54
2022/02/05 02:57:53;;;;;;;10.77;3.55;;;;;;;5.69;100.00;98114.66;5008770;28;20041;-53
2022/02/05 03:00:18;;;;;;;9.48;3.17;;;;;;;6.01;100.00;98117.53;5007330;28;20036;-56
2022/02/05 03:02:44;;;;;;;9.75;2.90;;;;;;;6.22;100.00;98124.84;5007929;28;20025;-54
2022/02/05 03:05:09;;;;;;;11.15;3.35;;;;;;;4.65;100.00;98122.53;5007480;28;20752;-56
2022/02/05 03:07:35;;;;;;;12.23;3.78;;;;;;;5.01;100.00;98133.13;5007157;28;20087;-54
2022/02/05 03:10:00;;;;;;;10.32;3.10;;;;;;;5.55;100.00;98137.38;5007149;28;20041;-53
2022/02/05 03:12:25;;;;;;;9.88;3.25;;;;;;;5.57;100.00;98139.06;5005142;28;20987;-54
2022/02/05 03:14:51;;;;;;;12.80;3.72;;;;;;;6.19;100.00;98148.22;5008152;28;20439;-54
2022/02/05 03:17:26;;;;;;;9.57;3.10;;;;;;;6.15;100.00;98146.59;5006680;28;20359;-56
2022/02/05 03:19:53;;;;;;;8.52;2.95;;;;;;;6.17;100.00;98152.59;5007388;28;20026;-55
2022/02/05 03:22:20;;;;;;;9.85;2.90;;;;;;;7.20;100.00;98157.16;5007718;28;20037;-54
2022/02/05 03:24:47;;;;;;;10.52;3.28;;;;;;;4.84;100.00;98151.50;5008135;28;20032;-56
2022/02/05 03:27:15;;;;;;;11.90;3.13;;;;;;;5.56;100.00;98149.44;5006205;28;20046;-53
2022/02/05 03:29:44;;;;;;;10.20;2.83;;;;;;;5.99;100.00;98156.38;5007808;28;20049;-54
2022/02/05 03:32:09;;;;;;;8.40;3.00;;;;;;;5.38;100.00;98148.03;5010547;28;20064;-56
2022/02/05 03:34:35;;;;;;;12.05;3.00;;;;;;;5.68;100.00;98156.09;5007010;28;20387;-56
2022/02/05 03:37:01;;;;;;;10.30;2.95;;;;;;;5.43;100.00;98153.13;5006207;28;20033;-55
2022/02/05 03:39:26;;;;;;;10.93;3.30;;;;;;;5.15;100.00;98166.53;5006347;28;20017;-54
2022/02/05 03:41:52;;;;;;;8.13;2.47;;;;;;;5.00;100.00;98158.16;5008193;28;20040;-54
2022/02/05 03:44:17;;;;;;;11.07;3.05;;;;;;;5.11;100.00;98157.97;5009506;28;20041;-55
2022/02/05 03:46:43;;;;;;;9.82;2.60;;;;;;;4.42;100.00;98162.44;5008590;28;20478;-53
2022/02/05 03:49:08;;;;;;;10.82;2.90;;;;;;;5.75;100.00;98179.28;5008584;28;20369;-54
2022/02/05 03:51:34;;;;;;;9.35;2.63;;;;;;;5.64;100.00;98180.34;5007444;28;20073;-55
2022/02/05 03:54:00;;;;;;;9.77;3.00;;;;;;;5.48;100.00;98185.81;5009473;28;20030;-53
2022/02/05 03:56:25;;;;;;;10.45;2.80;;;;;;;5.28;100.00;98186.13;5005586;28;20061;-56
2022/02/05 03:58:51;;;;;;;12.02;3.03;;;;;;;5.00;100.00;98199.50;5008730;28;20030;-54
2022/02/05 04:01:16;;;;;;;8.13;2.47;;;;;;;5.89;100.00;98202.28;5005175;28;20124;-54
2022/02/05 04:03:41;;;;;;;11.57;3.03;;;;;;;5.55;100.00;98202.03;5006550;28;20868;-53
2022/02/05 04:06:07;;;;;;;9.63;2.42;;;;;;;5.53;100.00;98209.88;5006631;28;20455;-56
2022/02/05 04:08:33;;;;;;;10.07;2.92;;;;;;;5.19;100.00;98207.81;5008151;28;20659;-55
2022/02/05 04:11:31;;;;;;;10.48;3.03;;;;;;;5.22;100.00;98215.53;5007318;28;20045;-55
2022/02/05 04:16:28;;;;;;;14.98;3.72;;;;;;;5.16;100.00;98235.47;5006686;28;20056;-54
2022/02/05 04:18:55;;;;;;;13.55;3.20;;;;;;;5.12;100.00;98236.38;5005816;28;20836;-54
2022/02/05 04:21:21;;;;;;;8.90;2.80;;;;;;;5.83;100.00;98243.84;5007010;28;20049;-54
2022/02/05 04:23:49;;;;;;;9.55;2.60;;;;;;;5.96;100.00;98236.75;5007975;28;20032;-54
2022/02/05 04:26:16;;;;;;;15.32;3.53;;;;;;;5.31;100.00;98234.38;5007478;28;20038;-55
2022/02/05 04:28:42;;;;;;;9.70;2.95;;;;;;;5.41;100.00;98248.88;5011386;28;20041;-52
2022/02/05 04:31:08;;;;;;;12.07;3.03;;;;;;;5.25;100.00;98252.56;5012319;28;20110;-56
2022/02/05 04:33:33;;;;;;;8.98;2.65;;;;;;;5.43;100.00;98239.34;5011578;28;20025;-55
2022/02/05 04:35:59;;;;;;;7.40;2.58;;;;;;;6.05;100.00;98249.50;5011142;28;20040;-56
2022/02/05 04:38:26;;;;;;;10.45;2.70;;;;;;;6.22;100.00;98250.94;5012730;28;20518;-55
2022/02/05 04:40:59;;;;;;;7.88;2.20;;;;;;;6.59;100.00;98256.22;5012316;28;20034;-54
2022/02/05 05:20:05;;;;;;;9.30;2.53;;;;;;;6.54;100.00;98276.19;5010886;28;20521;-55
2022/02/05 05:22:30;;;;;;;9.88;2.58;;;;;;;7.31;100.00;98277.09;5009718;28;20041;-55
2022/02/05 05:24:56;;;;;;;10.73;3.03;;;;;;;5.68;100.00;98280.31;5010478;28;20028;-55
2022/02/05 05:27:21;;;;;;;7.93;2.30;;;;;;;7.44;100.00;98286.28;5009502;28;20076;-54
2022/02/05 05:29:46;;;;;;;8.60;2.60;;;;;;;5.68;100.00;98281.19;5008787;28;20117;-54
2022/02/05 05:32:12;;;;;;;7.93;2.38;;;;;;;7.25;100.00;98292.81;5010499;28;20038;-54
2022/02/05 05:34:37;;;;;;;8.90;2.88;;;;;;;6.64;100.00;98295.00;5010176;28;20033;-55
2022/02/05 05:37:03;;;;;;;8.40;2.78;;;;;;;7.23;100.00;98299.78;5008616;28;20045;-55
2022/02/05 05:39:32;;;;;;;10.18;3.10;;;;;;;6.27;100.00;98296.59;5018129;28;20125;-55
2022/02/05 05:41:57;;;;;;;8.48;2.85;;;;;;;5.95;100.00;98304.88;5008513;28;20121;-55
2022/02/05 05:52:16;;;;;;;12.13;3.22;;;;;;;5.81;100.00;98307.72;5009470;28;20042;-55
2022/02/05 05:54:42;;;;;;;10.20;3.40;;;;;;;5.65;100.00;98311.44;5009344;28;20030;-54
2022/02/05 05:57:08;;;;;;;10.50;3.25;;;;;;;5.47;100.00;98305.69;5009392;28;20498;-54
2022/02/05 05:59:33;;;;;;;10.20;2.95;;;;;;;5.75;100.00;98303.50;5011024;28;20033;-53
2022/02/05 06:01:59;;;;;;;9.88;2.72;;;;;;;5.56;100.00;98315.88;5009316;28;20047;-57
2022/02/05 06:04:24;;;;;;;10.85;3.25;;;;;;;5.71;100.00;98319.94;5010451;28;20075;-54
2022/02/05 06:06:49;;;;;;;9.35;3.00;;;;;;;5.44;100.00;98318.69;5008256;28;20355;-57
2022/02/05 06:09:15;;;;;;;9.50;3.05;;;;;;;5.54;100.00;98309.88;5008644;28;20539;-55
2022/02/05 06:11:40;;;;;;;9.23;2.85;;;;;;;4.95;100.00;98314.19;5008617;28;20045;-56
2022/02/05 06:14:06;;;;;;;10.07;2.85;;;;;;;5.91;100.00;98319.63;5008088;28;20021;-54
2022/02/05 06:16:33;;;;;;;13.38;4.00;;;;;;;5.35;100.00;98319.66;5007136;28;20050;-55
2022/02/05 06:18:58;;;;;;;10.57;3.22;;;;;;;5.39;100.00;98326.50;5010217;28;20045;-56
2022/02/05 06:21:24;;;;;;;9.85;2.72;;;;;;;7.21;100.00;98337.91;5008588;28;20084;-55
2022/02/05 06:23:50;;;;;;;11.05;2.95;;;;;;;6.40;100.00;98337.81;5008768;28;20032;-56
2022/02/05 06:26:15;;;;;;;10.02;3.08;;;;;;;6.77;100.00;98337.09;5009749;28;20080;-57
2022/02/05 06:28:40;;;;;;;11.50;3.03;;;;;;;7.26;100.00;98330.84;5010087;28;20427;-57
2022/02/05 06:31:06;;;;;;;12.00;3.47;;;;;;;5.39;100.00;98341.16;5008396;28;20038;-55
2022/02/05 06:33:31;;;;;;;10.07;3.03;;;;;;;6.32;100.00;98349.16;5007475;28;20373;-55
2022/02/05 06:35:57;;;;;;;8.85;2.95;;;;;;;6.11;100.00;98354.72;5008662;28;20065;-55
2022/02/05 06:38:24;;;;;;;9.05;3.28;;;;;;;5.19;100.00;98352.63;5009941;28;20068;-55
2022/02/05 06:40:50;;;;;;;11.75;3.78;;;;;;;5.50;100.00;98359.97;5007132;28;20041;-54
2022/02/05 06:43:15;;;;;;;12.05;3.35;;;;;;;5.12;100.00;98369.13;5007330;28;20494;-54
2022/02/05 06:45:40;;;;;;;9.50;3.20;;;;;;;6.14;100.00;98367.63;5009210;28;20037;-56
2022/02/05 06:48:07;;;;;;;12.23;3.47;;;;;;;4.77;100.00;98366.97;5007174;28;20025;-56
2022/02/05 06:50:32;;;;;;;13.23;3.45;;;;;;;4.96;100.00;98368.47;5007255;28;20033;-54
2022/02/05 06:52:58;;;;;;;11.68;3.20;;;;;;;6.35;100.00;98377.59;5007706;28;20014;-54
2022/02/05 06:55:23;;;;;;;11.88;3.75;;;;;;;5.73;100.00;98382.06;5007787;28;20388;-54
2022/02/05 06:57:49;;;;;;;10.77;3.72;;;;;;;5.74;100.00;98386.38;5007272;28;20088;-55
2022/02/05 07:00:14;;;;;;;17.52;4.90;;;;;;;6.45;100.00;98395.56;5008561;28;20022;-55
2022/02/05 07:02:44;;;;;;;12.25;3.67;;;;;;;5.91;100.00;98394.72;5005819;28;20375;-56
2022/02/05 07:05:10;;;;;;;13.00;3.72;;;;;;;7.05;100.00;98399.63;5010627;28;20044;-55
2022/02/05 07:07:35;;;;;;;10.10;3.53;;;;;;;5.74;100.00;98402.75;5008097;28;20046;-57
2022/02/05 07:10:01;;;;;;;12.05;3.90;;;;;;;5.50;100.00;98411.72;5009480;28;20014;-55
2022/02/05 07:12:26;;;;;;;12.88;4.30;;;;;;;5.13;100.00;98411.38;5008051;28;20130;-56
2022/02/05 07:15:02;;;;;;;14.80;3.88;;;;;;;5.30;100.00;98419.75;5007338;28;20092;-57
2022/02/05 07:17:41;;;;;;;11.02;4.05;;;;;;;5.50;100.00;98426.41;5005845;28;20048;-54
2022/02/05 07:31:12;;;;;;;12.38;4.30;;;;;;;5.01;100.00;98448.56;5006965;28;20036;-56
2022/02/05 07:33:37;;;;;;;14.20;4.45;;;;;;;5.06;100.00;98449.34;5006787;28;20024;-56
2022/02/05 07:36:03;;;;;;;15.18;4.32;;;;;;;5.73;100.00;98454.53;5006867;28;20033;-56
2022/02/05 07:38:28;;;;;;;12.27;4.50;;;;;;;5.13;100.00;98458.75;5007701;28;20032;-56
2022/02/05 07:40:54;;;;;;;15.18;4.97;;;;;;;4.81;100.00;98467.69;5006671;28;20487;-56
2022/02/05 07:43:26;;;;;;;12.45;4.50;;;;;;;5.10;100.00;98468.28;5007805;28;20045;-56
2022/02/05 07:45:51;;;;;;;14.65;4.70;;;;;;;5.35;100.00;98472.28;5007390;28;20038;-57
2022/02/05 07:48:17;;;;;;;14.18;5.07;;;;;;;4.58;100.00;98480.03;5008085;28;20153;-55
2022/02/05 07:50:42;;;;;;;12.82;4.97;;;;;;;5.59;100.00;98478.88;5007128;28;20120;-56
2022/02/05 07:53:08;;;;;;;11.48;4.60;;;;;;;5.03;100.00;98472.66;5006624;28;20029;-54
2022/02/05 07:55:33;;;;;;;12.52;4.00;;;;;;;5.47;100.00;98483.34;5006505;28;20502;-55
2022/02/05 07:57:58;;;;;;;18.02;5.18;;;;;;;4.73;100.00;98482.44;5010045;28;20490;-57
2022/02/05 08:00:24;;;;;;;18.10;5.25;;;;;;;5.50;100.00;98489.34;5008474;28;20046;-55
2022/02/05 08:02:51;;;;;;;13.05;4.90;;;;;;;5.81;100.00;98494.13;5011567;28;20042;-55
2022/02/05 08:05:17;;;;;;;16.70;4.78;;;;;;;6.04;100.00;98485.19;5011946;28;20826;-55
2022/02/05 08:07:43;;;;;;;12.85;3.78;;;;;;;6.73;100.00;98487.50;5012166;28;20518;-56
2022/02/05 08:10:09;;;;;;;11.75;4.25;;;;;;;6.84;100.00;98489.91;5012914;28;20024;-54
2022/02/05 08:12:38;;;;;;;13.60;4.28;;;;;;;7.73;100.00;98502.88;5012716;28;20064;-56
2022/02/05 08:15:04;;;;;;;12.20;4.40;;;;;;;7.32;100.00;98496.78;5010793;28;20148;-55
2022/02/05 08:17:32;;;;;;;11.40;3.97;;;;;;;6.26;100.00;98494.34;5010544;28;20112;-55
2022/02/05 08:19:58;;;;;;;15.07;5.03;;;;;;;6.07;100.00;98491.19;5011615;28;20104;-56
2022/02/05 08:22:23;;;;;;;12.23;4.65;;;;;;;5.72;100.00;98489.91;5010996;28;20141;-55
2022/02/05 08:24:49;;;;;;;14.30;5.10;;;;;;;6.16;100.00;98495.38;5010086;28;20024;-56
2022/02/05 08:27:16;;;;;;;12.63;5.10;;;;;;;6.38;100.00;98488.13;5011539;28;20524;-57
2022/02/05 08:29:52;;;;;;;13.57;4.40;;;;;;;6.46;100.00;98488.00;5011326;28;20104;-57
2022/02/05 08:32:19;;;;;;;14.55;4.93;;;;;;;5.82;100.00;98495.81;5011380;28;20040;-55
2022/02/05 08:34:45;;;;;;;16.48;5.47;;;;;;;5.63;100.00;98489.19;5010552;28;20044;-53
2022/02/05 08:37:11;;;;;;;12.73;4.85;;;;;;;6.75;100.00;98501.31;5011231;28;20041;-54
2022/02/05 08:39:36;;;;;;;13.35;4.53;;;;;;;6.43;100.00;98495.81;5011168;28;20096;-54
2022/02/05 08:42:03;;;;;;;15.15;4.85;;;;;;;7.49;100.00;98497.28;5008695;28;20038;-55
2022/02/05 08:44:28;;;;;;;12.65;4.72;;;;;;;7.75;100.00;98503.69;5010730;28;20117;-53
2022/02/05 08:46:54;;;;;;;15.02;4.70;;;;;;;7.13;100.00;98496.28;5010810;28;20639;-54
2022/02/05 08:49:19;;;;;;;12.60;4.05;;;;;;;7.61;100.00;98492.72;5011630;28;20029;-54
2022/02/05 08:51:44;;;;;;;17.45;4.97;;;;;;;7.24;100.00;98496.06;5011121;28;20041;-52
2022/02/05 08:54:10;;;;;;;10.55;4.32;;;;;;;6.65;100.00;98499.72;5011631;28;20032;-54
2022/02/05 08:56:35;;;;;;;10.70;3.90;;;;;;;8.52;100.00;98501.94;5008536;28;20034;-54
2022/02/05 08:59:02;;;;;;;11.13;4.45;;;;;;;7.14;100.00;98501.44;5011183;28;20157;-54
2022/02/05 09:01:36;;;;;;;10.27;4.00;;;;;;;6.61;100.00;98492.91;5007933;28;20091;-53
2022/02/05 09:04:04;;;;;;;12.27;4.85;;;;;;;6.48;100.00;98504.38;5009710;28;20029;-53
2022/02/05 09:06:35;;;;;;;14.88;5.03;;;;;;;7.24;100.00;98509.03;5007342;28;20415;-54
2022/02/05 09:09:09;;;;;;;12.25;4.50;;;;;;;6.77;100.00;98508.22;5010829;28;20052;-53
2022/02/05 09:14:38;;;;;;;14.25;4.45;;;;;;;6.21;100.00;98519.44;4999219;28;20896;-53
2022/02/05 09:17:04;;;;;;;13.88;4.30;;;;;;;6.65;100.00;98524.81;5009759;28;20064;-53
2022/02/05 09:19:32;;;;;;;13.85;5.25;;;;;;;7.24;100.00;98519.44;5009572;28;20159;-55
2022/02/05 09:21:58;;;;;;;13.20;4.32;;;;;;;7.98;100.00;98529.16;5008158;28;20041;-54
2022/02/05 09:24:24;;;;;;;15.63;4.68;;;;;;;8.15;100.00;98526.19;5008506;28;20030;-54
2022/02/05 09:26:57;;;;;;;13.27;4.90;;;;;;;7.37;100.00;98522.63;5009232;28;20049;-55
2022/02/05 09:29:23;;;;;;;10.07;3.88;;;;;;;7.34;100.00;98526.16;5009405;28;20033;-54
2022/02/05 09:31:49;;;;;;;12.05;4.10;;;;;;;8.19;100.00;98533.00;5010412;28;20040;-54
2022/02/05 09:34:15;;;;;;;12.00;4.32;;;;;;;7.56;100.00;98517.97;5012364;28;20052;-53
2022/02/05 09:36:42;;;;;;;12.50;4.85;;;;;;;7.64;100.00;98529.88;5009662;28;20675;-53
2022/02/05 09:39:09;;;;;;;7.90;2.50;;;;;;;12.41;100.00;98540.00;5008313;28;20817;-54
2022/02/05 09:41:35;;;;;;;6.45;2.22;;;;;;;12.75;100.00;98534.22;5006082;28;20576;-55
2022/02/05 09:44:02;;;;;;;7.93;2.70;;;;;;;15.68;100.00;98525.75;5008443;28;20600;-55
2022/02/05 09:46:27;;;;;;;7.18;2.65;;;;;;;13.90;100.00;98525.78;5005697;28;20040;-54
2022/02/05 09:48:54;;;;;;;7.20;2.80;;;;;;;13.08;100.00;98523.25;5007959;28;20038;-56
2022/02/05 09:51:33;;;;;;;7.70;2.85;;;;;;;15.04;100.00;98521.16;5007844;28;20037;-55
2022/02/05 09:54:01;;;;;;;6.55;2.38;;;;;;;15.73;100.00;98523.72;5009880;28;20033;-56
2022/02/05 09:56:27;;;;;;;5.80;2.50;;;;;;;14.93;100.00;98526.09;5007978;28;20103;-54
2022/02/05 09:58:54;;;;;;;8.23;3.05;;;;;;;17.63;100.00;98525.16;5009060;28;20543;-54
2022/02/05 10:01:25;;;;;;;6.75;2.72;;;;;;;12.91;100.00;98529.22;5006651;28;20045;-56
2022/02/05 10:03:52;;;;;;;6.70;3.33;;;;;;;11.53;100.00;98528.44;5009003;28;20028;-55
2022/02/05 10:06:21;;;;;;;8.38;3.78;;;;;;;9.47;100.00;98535.03;5006268;28;20041;-54
2022/02/05 10:08:56;;;;;;;7.78;3.15;;;;;;;9.52;100.00;98542.69;5007651;28;20094;-54
2022/02/05 10:11:21;;;;;;;9.40;4.07;;;;;;;8.15;100.00;98536.56;5008493;28;20080;-54
2022/02/05 10:13:47;;;;;;;9.88;3.92;;;;;;;7.79;100.00;98536.47;5008043;28;20032;-53
2022/02/05 10:16:13;;;;;;;10.60;3.45;;;;;;;8.76;100.00;98547.28;5008952;28;20041;-53
2022/02/05 10:18:43;;;;;;;8.40;2.97;;;;;;;10.04;100.00;98551.63;5012000;28;20829;-54
2022/02/05 10:21:29;;;;;;;11.50;3.90;;;;;;;9.05;100.00;98550.91;5010944;28;20037;-53
2022/02/05 10:23:55;;;;;;;7.40;2.80;;;;;;;10.26;100.00;98559.66;5009460;28;20017;-56
2022/02/05 10:26:38;;;;;;;9.30;3.72;;;;;;;7.06;100.00;98557.81;5008392;28;20128;-54
2022/02/05 10:29:14;;;;;;;10.68;3.80;;;;;;;8.26;100.00;98549.34;5007271;28;20041;-53
2022/02/05 10:32:13;;;;;;;13.30;4.38;;;;;;;7.94;100.00;98545.72;5007326;28;20081;-55
2022/02/05 10:35:15;;;;;;;10.15;3.78;;;;;;;8.33;100.00;98547.47;5006684;28;20470;-53
2022/02/05 10:37:49;;;;;;;10.57;3.85;;;;;;;7.46;100.00;98546.69;5005756;28;20053;-54
2022/02/05 10:40:21;;;;;;;10.52;3.65;;;;;;;7.91;100.00;98541.41;5008566;28;20445;-54
2022/02/05 10:43:05;;;;;;;7.30;3.00;;;;;;;8.34;100.00;98542.19;5007791;28;20018;-55
2022/02/05 10:45:45;;;;;;;9.77;3.13;;;;;;;10.09;100.00;98552.34;5008901;28;20034;-54
2022/02/05 10:48:16;;;;;;;8.02;2.88;;;;;;;10.37;100.00;98556.75;5007712;28;20043;-55
2022/02/05 10:50:42;;;;;;;8.70;3.35;;;;;;;8.80;100.00;98550.66;5006863;28;20037;-58
2022/02/05 10:53:27;;;;;;;8.32;3.15;;;;;;;9.68;100.00;98557.00;5007425;28;20040;-54
2022/02/05 10:58:44;;;;;;;6.90;2.58;;;;;;;11.16;100.00;98568.09;5007120;28;20037;-54
2022/02/05 11:07:11;;;;;;;11.07;3.60;;;;;;;7.40;100.00;98556.31;5010699;28;20455;-53
2022/02/05 11:09:38;;;;;;;8.48;2.88;;;;;;;11.44;100.00;98564.50;5008886;28;20091;-53
2022/02/05 11:20:06;;;;;;;9.73;3.03;;;;;;;10.28;100.00;98546.56;5007134;28;20033;-54
2022/02/05 11:22:34;;;;;;;12.23;3.40;;;;;;;9.25;100.00;98545.19;5006317;28;20077;-55
2022/02/05 11:25:02;;;;;;;9.90;3.13;;;;;;;10.85;100.00;98543.00;5006156;28;20052;-52
2022/02/05 11:27:28;;;;;;;10.50;3.22;;;;;;;9.12;100.00;98551.63;5005928;28;20034;-54
2022/02/05 11:29:53;;;;;;;6.93;2.58;;;;;;;9.27;100.00;98546.00;5007482;28;20035;-53
2022/02/05 11:32:27;;;;;;;10.23;3.13;;;;;;;8.34;100.00;98554.34;5008128;28;20050;-55
2022/02/05 11:35:12;;;;;;;11.95;3.50;;;;;;;9.49;100.00;98550.63;5007047;28;20586;-54
2022/02/05 11:37:55;;;;;;;9.75;3.42;;;;;;;9.54;100.00;98559.13;5009401;28;20124;-55
2022/02/05 11:40:57;;;;;;;8.52;3.20;;;;;;;9.97;100.00;98547.50;5007103;28;20527;-54
2022/02/05 11:43:24;;;;;;;9.30;3.10;;;;;;;9.63;100.00;98546.72;4949329;28;20049;-53
2022/02/05 11:46:17;;;;;;;10.55;3.35;;;;;;;9.70;100.00;98555.19;4995444;28;20041;-56
2022/02/05 11:48:52;;;;;;;10.18;3.25;;;;;;;9.95;100.00;98557.09;5005992;28;20041;-54
2022/02/05 11:51:17;;;;;;;9.82;3.60;;;;;;;9.40;100.00;98547.34;5006366;28;20060;-54
2022/02/05 11:53:55;;;;;;;10.25;3.35;;;;;;;8.86;100.00;98545.34;5007794;28;20434;-54
2022/02/05 11:56:22;;;;;;;11.05;3.53;;;;;;;8.95;100.00;98547.69;5004375;28;20046;-56
2022/02/05 11:59:00;;;;;;;9.88;3.30;;;;;;;9.47;100.00;98550.66;5005300;28;20030;-54
2022/02/05 12:01:36;;;;;;;10.35;3.28;;;;;;;9.06;100.00;98539.59;5007143;28;20511;-53
2022/02/05 12:04:18;;;;;;;9.85;3.00;;;;;;;9.91;100.00;98532.91;5009107;28;20033;-54
2022/02/05 12:06:49;;;;;;;10.95;3.42;;;;;;;8.95;100.00;98537.28;5004159;28;20050;-54
2022/02/05 12:09:32;;;;;;;8.32;3.10;;;;;;;9.61;100.00;98537.22;5009847;28;20124;-56
2022/02/05 12:12:28;;;;;;;11.70;3.33;;;;;;;10.03;100.00;98531.66;5007525;28;20676;-54
2022/02/05 12:15:12;;;;;;;9.35;3.33;;;;;;;9.50;100.00;98528.88;5007209;28;20048;-55
2022/02/05 12:20:28;;;;;;;11.93;3.65;;;;;;;11.94;100.00;98526.06;5005876;28;20088;-60
2022/02/05 12:23:26;;;;;;;;;;;;;;;;;;;;;
2022/02/05 12:25:31;;;;;;;10.32;3.33;;;;;;;9.77;100.00;98533.28;5005673;28;20734;-58
2022/02/05 12:27:56;;;;;;;8.68;3.00;;;;;;;9.45;100.00;98534.22;5005288;28;20113;-60
2022/02/05 12:30:36;;;;;;;9.73;3.22;;;;;;;9.53;100.00;98536.59;5006954;28;20030;-60
2022/02/05 12:33:03;;;;;;;9.23;3.35;;;;;;;10.82;100.00;98532.66;5008329;28;20112;-58
2022/02/05 12:35:28;;;;;;;8.45;2.90;;;;;;;10.99;100.00;98534.69;5007838;28;20033;-60
2022/02/05 12:37:54;;;;;;;8.15;2.97;;;;;;;11.13;100.00;98527.25;5007245;28;20030;-58
2022/02/05 12:40:19;;;;;;;9.02;2.72;;;;;;;11.72;100.00;98528.59;5006413;28;20025;-59
2022/02/05 12:42:55;;;;;;;7.95;2.58;;;;;;;11.56;100.00;98523.13;5006682;28;20796;-60
2022/02/05 12:45:34;;;;;;;6.15;2.53;;;;;;;11.53;100.00;98514.53;5006818;28;20402;-59
2022/02/05 12:48:05;;;;;;;8.13;2.60;;;;;;;10.88;100.00;98519.44;5011060;28;20034;-59
2022/02/05 12:50:31;;;;;;;7.05;2.72;;;;;;;11.88;100.00;98526.28;5005960;28;20030;-60
2022/02/05 12:52:56;;;;;;;10.27;2.83;;;;;;;8.65;100.00;98518.94;5008595;28;20026;-59
2022/02/05 12:55:25;;;;;;;9.40;2.53;;;;;;;8.09;100.00;98523.72;5008831;28;20037;-60
2022/02/05 12:58:03;;;;;;;7.53;2.45;;;;;;;7.82;100.00;98517.41;5007635;28;20112;-59
2022/02/05 13:00:29;;;;;;;8.70;2.58;;;;;;;7.44;100.00;98517.28;5012052;28;20046;-60
2022/02/05 13:02:55;;;;;;;8.88;2.85;;;;;;;7.48;100.00;98524.16;5010773;28;20812;-60
2022/02/05 13:05:34;;;;;;;10.93;2.80;;;;;;;7.09;100.00;98516.22;5008998;28;20037;-61
2022/02/05 13:08:00;;;;;;;16.70;4.80;;;;;;;12.50;100.00;98552.72;5007905;28;20084;-59
2022/02/05 13:10:26;;;;;;;13.23;3.63;;;;;;;13.92;100.00;98550.16;5011484;28;20033;-60
2022/02/05 13:12:56;;;;;;;13.65;3.20;;;;;;;15.02;100.00;98527.41;5010683;28;20622;-59
2022/02/05 13:24:50;;;;;;;9.93;3.20;;;;;;;8.93;100.00;98510.44;5008242;28;20649;-61
2022/02/05 13:26:13;;;;;;;10.40;2.90;;;;;;;8.32;100.00;98506.75;5007832;28;20128;-60
2022/02/05 13:34:39;;;;;;;8.60;2.75;;;;;;;8.63;100.00;98492.13;5010128;28;20037;-61
2022/02/05 13:37:19;;;;;;;14.00;4.95;;;;;;;9.63;100.00;98494.63;5008046;28;20918;-59
2022/02/05 13:39:53;;;;;;;9.90;3.90;;;;;;;8.62;100.00;98495.63;5009314;28;20018;-59
2022/02/05 13:42:25;;;;;;;11.25;3.13;;;;;;;9.05;100.00;98488.47;5008016;28;20034;-60
2022/02/05 13:45:01;;;;;;;9.20;2.97;;;;;;;8.29;100.00;98492.09;5009233;28;20502;-59
2022/02/05 13:47:33;;;;;;;9.48;2.80;;;;;;;8.17;100.00;98485.41;5007870;28;20124;-61
2022/02/05 13:49:58;;;;;;;7.95;2.63;;;;;;;7.71;100.00;98484.72;5009498;28;20018;-61
2022/02/05 13:52:32;;;;;;;9.85;2.97;;;;;;;9.37;100.00;98484.09;5005368;28;20420;-61
2022/02/05 13:54:57;;;;;;;9.98;2.80;;;;;;;8.45;100.00;98479.59;5008170;28;20021;-61
2022/02/05 13:57:22;;;;;;;8.27;2.80;;;;;;;8.97;100.00;98475.66;5006376;28;20641;-61
2022/02/05 13:59:55;;;;;;;9.68;2.92;;;;;;;11.72;100.00;98476.34;5008735;28;20021;-60
2022/02/05 14:02:21;;;;;;;9.23;2.72;;;;;;;9.83;100.00;98468.00;5009266;28;20550;-61
2022/02/05 14:05:12;;;;;;;10.50;2.72;;;;;;;12.79;100.00;98467.75;5011388;28;20108;-60
2022/02/05 14:07:46;;;;;;;7.70;2.58;;;;;;;11.86;100.00;98464.53;5016886;28;20053;-59
2022/02/05 14:10:17;;;;;;;9.63;2.53;;;;;;;11.62;100.00;98461.94;5010398;28;20115;-61
2022/02/05 14:12:50;;;;;;;6.95;2.17;;;;;;;12.93;100.00;98470.63;5008430;28;20475;-60
2022/02/05 14:15:17;;;;;;;7.43;2.60;;;;;;;12.81;100.00;98465.06;5008629;28;20492;-62
2022/02/05 14:17:43;;;;;;;10.55;3.97;;;;;;;13.73;100.00;98463.63;5009792;28;20402;-61
2022/02/05 14:20:10;;;;;;;6.57;2.08;;;;;;;14.19;95.37;98457.97;5006490;28;20060;-57
2022/02/05 14:22:38;;;;;;;5.57;2.30;;;;;;;12.28;100.00;98469.00;5008960;28;20053;-58
2022/02/05 14:25:20;;;;;;;5.88;2.20;;;;;;;10.73;86.47;98465.13;5007912;28;20551;-60
2022/02/05 14:28:13;;;;;;;7.43;2.40;;;;;;;10.79;100.00;98459.72;5007224;28;20029;-60
2022/02/05 14:30:43;;;;;;;8.02;2.70;;;;;;;9.55;94.89;98473.16;5008164;28;20283;-60
2022/02/05 14:33:09;;;;;;;7.95;2.13;;;;;;;10.95;100.00;98460.03;5010242;28;20105;-59
2022/02/05 14:40:46;;;;;;;6.97;2.35;;;;;;;9.64;100.00;98466.81;5009404;28;20044;-61
2022/02/05 14:43:15;;;;;;;7.22;2.53;;;;;;;11.05;100.00;98471.84;5008458;28;20021;-58
2022/02/05 14:45:41;;;;;;;9.20;2.75;;;;;;;9.12;100.00;98474.38;5008490;28;20593;-60
2022/02/05 14:48:07;;;;;;;7.90;2.25;;;;;;;10.23;100.00;98468.47;5009682;28;20566;-60